createdAt,value
2022-09-06T00:01:12.001Z,11.57
2022-09-06T00:03:39.310Z,6.55
2022-09-06T00:06:12.181Z,13.20
2022-09-06T00:08:39.831Z,7.28
2022-09-06T00:11:07.797Z,11.05
2022-09-06T00:13:35.282Z,12.75
2022-09-06T00:16:11.062Z,8.52
2022-09-06T00:18:38.017Z,14.35
2022-09-06T00:21:13.372Z,11.38
2022-09-06T00:23:40.227Z,5.53
2022-09-06T00:26:06.970Z,4.40
2022-09-06T00:28:33.715Z,9.05
2022-09-06T00:31:09.308Z,4.45
2022-09-06T00:33:36.257Z,7.60
2022-09-06T00:36:03.509Z,7.18
2022-09-06T00:38:30.921Z,9.15
2022-09-06T00:40:58.192Z,3.90
2022-09-06T00:43:25.108Z,8.68
2022-09-06T00:45:55.639Z,9.13
2022-09-06T00:48:25.032Z,6.80
2022-09-06T00:51:01.082Z,6.53
2022-09-06T00:53:28.648Z,4.75
2022-09-06T00:55:56.106Z,6.13
2022-09-06T00:58:23.837Z,4.60
2022-09-06T01:00:51.010Z,3.45
2022-09-06T01:03:19.060Z,5.00
2022-09-06T01:06:05.078Z,4.70
2022-09-06T01:08:54.128Z,5.80
2022-09-06T01:11:41.407Z,7.97
2022-09-06T01:14:35.949Z,4.38
2022-09-06T01:17:19.468Z,3.67
2022-09-06T01:19:48.921Z,6.65
2022-09-06T01:22:40.404Z,10.82
2022-09-06T01:25:45.393Z,6.22
2022-09-06T01:28:27.449Z,5.43
2022-09-06T01:31:20.023Z,4.70
2022-09-06T01:33:49.800Z,5.28
2022-09-06T01:36:22.102Z,3.45
2022-09-06T01:38:49.515Z,4.13
2022-09-06T01:41:16.288Z,6.78
2022-09-06T01:43:46.727Z,6.32
2022-09-06T01:46:44.832Z,4.55
2022-09-06T01:49:38.628Z,3.25
2022-09-06T01:52:56.224Z,8.27
2022-09-06T01:55:51.696Z,4.57
2022-09-06T01:58:25.923Z,7.05
2022-09-06T02:01:22.349Z,5.25
2022-09-06T02:03:52.227Z,6.20
2022-09-06T02:06:22.924Z,12.38
2022-09-06T02:09:03.519Z,15.90
2022-09-06T02:11:32.623Z,5.32
2022-09-06T02:14:03.145Z,7.20
2022-09-06T02:16:30.890Z,3.33
2022-09-06T02:19:03.794Z,5.22
2022-09-06T02:21:32.751Z,3.90
2022-09-06T02:24:01.654Z,7.05
2022-09-06T02:26:31.129Z,4.07
2022-09-06T02:28:58.339Z,5.05
2022-09-06T02:31:38.139Z,3.95
2022-09-06T02:34:05.649Z,3.97
2022-09-06T02:36:33.078Z,5.45
2022-09-06T02:39:01.709Z,5.18
2022-09-06T02:41:31.013Z,4.82
2022-09-06T02:43:58.153Z,5.43
2022-09-06T02:46:25.489Z,7.38
2022-09-06T02:48:52.596Z,4.72
2022-09-06T02:51:20.662Z,5.82
2022-09-06T02:53:47.839Z,6.75
2022-09-06T02:56:14.982Z,4.20
2022-09-06T02:58:42.098Z,3.33
2022-09-06T03:01:09.334Z,4.22
2022-09-06T03:03:36.481Z,10.80
2022-09-06T03:06:03.679Z,3.85
2022-09-06T03:08:33.603Z,6.63
2022-09-06T03:11:01.370Z,4.97
2022-09-06T03:13:28.724Z,4.03
2022-09-06T03:15:57.322Z,4.90
2022-09-06T03:18:25.266Z,4.85
2022-09-06T03:20:53.523Z,3.67
2022-09-06T03:23:21.161Z,4.65
2022-09-06T03:25:48.549Z,3.45
2022-09-06T03:28:15.816Z,8.30
2022-09-06T03:30:45.115Z,4.35
2022-09-06T03:33:12.780Z,3.72
2022-09-06T03:35:40.326Z,5.15
2022-09-06T03:38:07.453Z,4.95
2022-09-06T03:40:34.584Z,4.95
2022-09-06T03:43:01.727Z,4.18
2022-09-06T03:45:28.880Z,5.60
2022-09-06T03:47:56.040Z,6.90
2022-09-06T03:50:23.374Z,4.32
2022-09-06T03:52:50.548Z,11.38
2022-09-06T03:55:17.709Z,4.10
2022-09-06T03:57:44.831Z,4.22
2022-09-06T04:00:12.264Z,6.68
2022-09-06T04:02:39.479Z,4.60
2022-09-06T04:05:06.930Z,4.10
2022-09-06T04:07:34.071Z,5.55
2022-09-06T04:10:01.248Z,4.03
2022-09-06T04:12:28.961Z,4.47
2022-09-06T04:14:56.094Z,3.33
2022-09-06T04:17:23.512Z,5.15
2022-09-06T04:19:50.681Z,3.97
2022-09-06T04:22:17.864Z,5.53
2022-09-06T04:24:45.014Z,4.32
2022-09-06T04:27:12.142Z,7.72
2022-09-06T04:29:39.278Z,4.78
2022-09-06T04:32:06.515Z,14.02
2022-09-06T04:34:34.149Z,4.80
2022-09-06T04:37:01.288Z,5.68
2022-09-06T04:39:28.488Z,4.93
2022-09-06T04:41:58.012Z,4.57
2022-09-06T04:44:25.141Z,3.95
2022-09-06T04:47:06.251Z,4.97
2022-09-06T04:49:36.226Z,6.57
2022-09-06T04:52:03.451Z,7.80
2022-09-06T04:54:30.593Z,5.40
2022-09-06T04:56:57.732Z,5.15
2022-09-06T04:59:25.083Z,5.82
2022-09-06T05:01:52.302Z,7.28
2022-09-06T05:04:19.466Z,5.07
2022-09-06T05:06:46.683Z,6.32
2022-09-06T05:09:13.917Z,8.52
2022-09-06T05:11:41.075Z,5.95
2022-09-06T05:14:08.219Z,7.15
2022-09-06T05:16:35.383Z,6.88
2022-09-06T05:19:02.629Z,9.70
2022-09-06T05:21:29.826Z,9.27
2022-09-06T05:23:58.794Z,7.30
2022-09-06T05:26:26.049Z,9.65
2022-09-06T05:28:53.433Z,7.70
2022-09-06T05:31:25.663Z,5.05
2022-09-06T05:33:53.739Z,4.57
2022-09-06T05:36:25.110Z,6.22
2022-09-06T05:38:52.584Z,5.57
2022-09-06T05:41:20.087Z,8.50
2022-09-06T05:43:47.277Z,6.88
2022-09-06T05:46:14.484Z,8.23
2022-09-06T05:48:41.652Z,5.30
2022-09-06T05:51:12.417Z,7.68
2022-09-06T05:53:41.615Z,8.32
2022-09-06T05:56:09.221Z,4.90
2022-09-06T05:58:36.679Z,7.57
2022-09-06T06:01:07.070Z,7.47
2022-09-06T06:03:34.499Z,9.32
2022-09-06T06:06:01.774Z,7.35
2022-09-06T06:08:29.131Z,7.55
2022-09-06T06:10:59.123Z,6.07
2022-09-06T06:13:26.331Z,7.43
2022-09-06T06:15:53.593Z,7.80
2022-09-06T06:18:20.802Z,10.25
2022-09-06T06:20:48.050Z,8.95
2022-09-06T06:23:15.826Z,8.27
2022-09-06T06:25:42.959Z,7.53
2022-09-06T06:28:10.110Z,5.80
2022-09-06T06:30:37.229Z,7.10
2022-09-06T06:33:04.389Z,9.25
2022-09-06T06:35:31.505Z,10.80
2022-09-06T06:37:58.660Z,9.70
2022-09-06T06:40:25.806Z,6.38
2022-09-06T06:42:54.043Z,8.65
2022-09-06T06:45:22.096Z,6.53
2022-09-06T06:47:52.421Z,6.30
2022-09-06T06:50:21.438Z,6.57
2022-09-06T06:52:48.717Z,6.25
2022-09-06T06:55:15.932Z,6.20
2022-09-06T06:57:43.171Z,5.40
2022-09-06T07:00:10.990Z,9.70
2022-09-06T07:02:38.142Z,5.18
2022-09-06T07:07:52.537Z,8.80
2022-09-06T07:10:35.619Z,11.07
2022-09-06T07:13:02.851Z,7.57
2022-09-06T07:15:29.986Z,14.10
2022-09-06T07:17:57.613Z,4.90
2022-09-06T07:20:27.996Z,4.80
2022-09-06T07:25:51.637Z,8.43
2022-09-06T07:28:18.761Z,6.03
2022-09-06T07:30:46.952Z,4.30
2022-09-06T07:33:14.104Z,7.15
2022-09-06T07:35:41.675Z,7.70
2022-09-06T07:38:08.886Z,8.68
2022-09-06T07:40:36.118Z,6.25
2022-09-06T07:43:03.274Z,6.22
2022-09-06T07:45:30.392Z,4.32
2022-09-06T07:48:01.038Z,4.32
2022-09-06T07:53:23.059Z,4.90
2022-09-06T07:55:56.534Z,11.13
2022-09-06T07:58:23.738Z,6.22
2022-09-06T08:00:50.911Z,5.25
2022-09-06T08:03:18.090Z,3.58
2022-09-06T08:11:19.930Z,3.10
2022-09-06T08:13:51.214Z,3.25
2022-09-06T08:16:18.728Z,2.40
2022-09-06T08:18:45.951Z,4.32
2022-09-06T08:21:14.843Z,6.38
2022-09-06T08:23:42.821Z,2.72
2022-09-06T08:26:10.107Z,2.30
2022-09-06T08:28:37.550Z,8.45
2022-09-06T08:31:12.065Z,1.90
2022-09-06T08:33:39.931Z,3.22
2022-09-06T08:36:07.603Z,3.75
2022-09-06T08:38:34.892Z,4.70
2022-09-06T08:41:12.721Z,3.70
2022-09-06T08:43:40.142Z,4.10
2022-09-06T08:46:08.617Z,2.95
2022-09-06T08:48:39.689Z,3.53
2022-09-06T08:51:09.730Z,3.97
2022-09-06T08:53:40.069Z,2.20
2022-09-06T08:56:28.529Z,3.03
2022-09-06T08:59:06.660Z,4.00
2022-09-06T09:01:47.863Z,2.42
2022-09-06T09:04:16.203Z,2.30
2022-09-06T09:06:45.706Z,4.43
2022-09-06T09:09:15.480Z,3.63
2022-09-06T09:11:44.205Z,4.25
2022-09-06T09:14:17.491Z,2.88
2022-09-06T09:16:44.809Z,3.60
2022-09-06T09:19:11.981Z,3.78
2022-09-06T09:21:40.458Z,4.10
2022-09-06T09:24:09.275Z,2.85
2022-09-06T09:27:02.816Z,3.40
2022-09-06T09:29:34.400Z,4.38
2022-09-06T09:32:03.558Z,2.38
2022-09-06T09:34:30.749Z,2.40
2022-09-06T09:40:04.275Z,2.58
2022-09-06T09:42:33.311Z,4.32
2022-09-06T09:45:02.412Z,5.20
2022-09-06T09:47:33.590Z,2.55
2022-09-06T09:50:01.092Z,2.30
2022-09-06T09:52:29.723Z,5.47
2022-09-06T09:54:58.200Z,2.05
2022-09-06T09:57:25.459Z,3.35
2022-09-06T09:59:58.205Z,6.05
2022-09-06T10:02:28.188Z,2.70
2022-09-06T10:05:02.393Z,2.15
2022-09-06T10:07:29.809Z,1.70
2022-09-06T10:10:01.760Z,2.67
2022-09-06T10:12:33.249Z,2.55
2022-09-06T10:15:04.893Z,5.82
2022-09-06T10:17:38.279Z,2.83
2022-09-06T10:20:08.155Z,2.90
2022-09-06T10:22:55.652Z,5.63
2022-09-06T10:25:22.893Z,3.17
2022-09-06T10:28:12.294Z,2.85
2022-09-06T10:30:51.737Z,3.17
2022-09-06T10:33:24.990Z,6.13
2022-09-06T10:35:52.718Z,3.63
2022-09-06T10:38:28.965Z,4.07
2022-09-06T10:41:14.194Z,4.10
2022-09-06T10:43:56.593Z,4.03
2022-09-06T10:46:26.653Z,5.63
2022-09-06T10:48:54.208Z,4.28
2022-09-06T10:51:30.248Z,5.07
2022-09-06T10:54:08.317Z,4.40
2022-09-06T10:56:39.486Z,9.77
2022-09-06T11:01:59.918Z,5.25
2022-09-06T11:07:34.599Z,5.50
2022-09-06T11:10:14.351Z,2.97
2022-09-06T11:13:07.841Z,4.18
2022-09-06T11:16:02.826Z,3.90
2022-09-06T11:18:44.089Z,4.85
2022-09-06T11:21:35.472Z,4.00
2022-09-06T11:24:39.517Z,3.65
2022-09-06T11:27:33.623Z,4.25
2022-09-06T11:30:02.651Z,6.95
2022-09-06T11:32:48.543Z,1.98
2022-09-06T11:35:32.853Z,3.72
2022-09-06T11:38:00.791Z,2.42
2022-09-06T11:40:36.881Z,3.83
2022-09-06T11:43:03.813Z,2.72
2022-09-06T11:45:46.224Z,3.67
2022-09-06T11:48:33.949Z,7.43
2022-09-06T11:51:03.795Z,2.92
2022-09-06T11:53:55.036Z,2.90
2022-09-06T11:56:25.030Z,2.15
2022-09-06T11:58:57.483Z,2.42
2022-09-06T12:01:26.846Z,3.65
2022-09-06T12:07:04.364Z,3.92
2022-09-06T12:09:31.043Z,3.15
2022-09-06T12:11:58.904Z,2.15
2022-09-06T12:14:40.311Z,2.22
2022-09-06T12:17:07.806Z,3.83
2022-09-06T12:19:48.588Z,4.45
2022-09-06T12:22:28.811Z,2.92
2022-09-06T12:24:55.584Z,2.00
2022-09-06T12:27:51.511Z,3.75
2022-09-06T12:30:50.897Z,4.45
2022-09-06T12:33:25.525Z,3.28
2022-09-06T12:38:25.512Z,2.45
2022-09-06T12:40:58.144Z,3.08
2022-09-06T12:43:31.053Z,2.72
2022-09-06T12:45:59.781Z,3.85
2022-09-06T12:48:28.247Z,1.92
2022-09-06T12:51:03.251Z,4.38
2022-09-06T12:53:31.641Z,4.18
2022-09-06T12:56:12.626Z,2.38
2022-09-06T12:58:41.788Z,3.67
2022-09-06T13:01:17.608Z,5.10
2022-09-06T13:04:05.076Z,4.00
2022-09-06T13:06:39.187Z,5.97
2022-09-06T13:09:13.154Z,2.53
2022-09-06T13:11:45.161Z,3.40
2022-09-06T13:14:25.572Z,2.67
2022-09-06T13:16:57.161Z,1.92
2022-09-06T13:19:41.983Z,5.05
2022-09-06T13:22:13.374Z,2.28
2022-09-06T13:24:47.097Z,2.58
2022-09-06T13:27:26.004Z,3.45
2022-09-06T13:30:01.070Z,1.30
2022-09-06T13:32:28.788Z,3.03
2022-09-06T13:34:57.352Z,2.53
2022-09-06T13:37:29.802Z,1.95
2022-09-06T13:39:57.632Z,3.47
2022-09-06T13:42:33.231Z,7.22
2022-09-06T13:45:30.359Z,2.53
2022-09-06T13:48:13.085Z,3.38
2022-09-06T13:50:44.641Z,2.38
2022-09-06T13:53:12.012Z,3.15
2022-09-06T13:55:40.093Z,3.15
2022-09-06T13:58:07.338Z,1.65
2022-09-06T14:00:34.555Z,2.25
2022-09-06T14:03:02.167Z,1.58
2022-09-06T14:05:29.426Z,2.35
2022-09-06T14:07:57.282Z,11.60
2022-09-06T14:10:24.652Z,1.33
2022-09-06T14:12:57.044Z,2.05
2022-09-06T14:15:25.160Z,3.50
2022-09-06T14:17:52.463Z,2.45
2022-09-06T14:20:19.719Z,2.83
2022-09-06T14:22:48.131Z,1.20
2022-09-06T14:25:15.464Z,1.95
2022-09-06T14:27:42.714Z,3.05
2022-09-06T14:30:10.422Z,5.43
2022-09-06T14:32:37.650Z,2.35
2022-09-06T14:35:05.945Z,2.08
2022-09-06T14:37:33.601Z,2.13
2022-09-06T14:40:00.997Z,1.45
2022-09-06T14:42:28.469Z,2.10
2022-09-06T14:44:55.705Z,2.97
2022-09-06T14:47:23.000Z,1.55
2022-09-06T14:49:50.229Z,1.10
2022-09-06T14:52:17.469Z,1.60
2022-09-06T14:54:44.729Z,1.48
2022-09-06T14:57:12.119Z,1.13
2022-09-06T14:59:39.550Z,6.32
2022-09-06T15:02:06.866Z,1.20
2022-09-06T15:04:34.177Z,1.83
2022-09-06T15:07:01.478Z,2.75
2022-09-06T15:09:29.346Z,2.17
2022-09-06T15:11:56.625Z,2.28
2022-09-06T15:14:25.287Z,2.03
2022-09-06T15:16:56.381Z,3.60
2022-09-06T15:19:24.867Z,2.55
2022-09-06T15:21:52.205Z,3.35
2022-09-06T15:24:20.031Z,1.98
2022-09-06T15:26:47.569Z,1.60
2022-09-06T15:29:15.663Z,1.05
2022-09-06T15:31:43.482Z,1.40
2022-09-06T15:34:12.252Z,1.25
2022-09-06T15:36:39.497Z,2.30
2022-09-06T15:39:07.000Z,3.58
2022-09-06T15:41:36.132Z,1.95
2022-09-06T15:44:07.063Z,2.67
2022-09-06T15:46:39.777Z,2.08
2022-09-06T15:49:08.509Z,3.90
2022-09-06T15:51:36.782Z,2.33
2022-09-06T15:54:04.489Z,3.22
2022-09-06T15:56:31.757Z,4.30
2022-09-06T15:58:59.011Z,2.03
2022-09-06T16:01:27.037Z,2.78
2022-09-06T16:03:58.547Z,2.38
2022-09-06T16:06:28.148Z,5.38
2022-09-06T16:09:00.110Z,2.03
2022-09-06T16:11:28.487Z,3.55
2022-09-06T16:13:56.274Z,7.63
2022-09-06T16:16:23.755Z,22.27
2022-09-06T16:18:52.294Z,11.43
2022-09-06T16:21:21.638Z,24.90
2022-09-06T16:23:53.631Z,4.88
2022-09-06T16:26:21.977Z,10.80
2022-09-06T16:28:50.629Z,10.25
2022-09-06T16:31:18.563Z,4.97
2022-09-06T16:33:46.246Z,6.18
2022-09-06T16:36:15.038Z,9.82
2022-09-06T16:38:42.672Z,32.75
2022-09-06T16:41:11.198Z,8.00
2022-09-06T16:43:38.556Z,8.98
2022-09-06T16:46:06.297Z,9.32
2022-09-06T16:48:34.120Z,3.55
2022-09-06T16:51:11.868Z,2.97
2022-09-06T16:53:40.251Z,5.60
2022-09-06T16:56:07.593Z,3.28
2022-09-06T16:58:35.297Z,6.47
2022-09-06T17:01:02.572Z,5.90
2022-09-06T17:03:30.004Z,11.55
2022-09-06T17:05:56.972Z,6.78
2022-09-06T17:08:24.242Z,2.95
2022-09-06T17:10:51.204Z,5.72
2022-09-06T17:13:18.062Z,3.50
2022-09-06T17:16:11.607Z,5.30
2022-09-06T17:18:39.183Z,5.80
2022-09-06T17:21:07.509Z,3.60
2022-09-06T17:23:35.847Z,2.88
2022-09-06T17:26:03.916Z,3.50
2022-09-06T17:28:34.778Z,4.50
2022-09-06T17:31:03.790Z,3.80
2022-09-06T17:33:32.036Z,8.80
2022-09-06T17:36:13.518Z,4.00
2022-09-06T17:38:42.930Z,3.72
2022-09-06T17:41:20.068Z,3.60
2022-09-06T17:43:47.475Z,1.83
2022-09-06T17:46:15.284Z,2.13
2022-09-06T17:48:43.572Z,3.03
2022-09-06T17:51:11.714Z,2.45
2022-09-06T17:53:39.338Z,2.75
2022-09-06T17:56:09.043Z,4.65
2022-09-06T17:58:36.757Z,3.90
2022-09-06T18:01:05.371Z,4.28
2022-09-06T18:03:32.688Z,5.65
2022-09-06T18:06:07.894Z,14.20
2022-09-06T18:08:36.163Z,15.38
2022-09-06T18:11:18.020Z,5.22
2022-09-06T18:13:46.097Z,3.67
2022-09-06T18:16:14.384Z,3.97
2022-09-06T18:18:41.889Z,18.25
2022-09-06T18:21:09.235Z,10.63
2022-09-06T18:23:36.585Z,5.13
2022-09-06T18:26:07.952Z,5.15
2022-09-06T18:28:37.041Z,7.57
2022-09-06T18:31:08.982Z,6.22
2022-09-06T18:33:36.775Z,4.40
2022-09-06T18:36:07.628Z,3.58
2022-09-06T18:38:35.793Z,6.43
2022-09-06T18:41:04.783Z,6.30
2022-09-06T18:43:36.693Z,8.55
2022-09-06T18:46:12.808Z,7.47
2022-09-06T18:48:40.761Z,8.98
2022-09-06T18:51:16.273Z,4.95
2022-09-06T18:53:44.875Z,5.18
2022-09-06T18:56:13.884Z,4.47
2022-09-06T18:58:41.664Z,5.80
2022-09-06T19:01:11.377Z,7.47
2022-09-06T19:03:40.087Z,10.23
2022-09-06T19:06:10.542Z,5.03
2022-09-06T19:08:37.824Z,5.53
2022-09-06T19:11:17.047Z,6.13
2022-09-06T19:13:45.489Z,10.02
2022-09-06T19:16:13.956Z,5.05
2022-09-06T19:18:41.569Z,5.65
2022-09-06T19:21:18.559Z,4.82
2022-09-06T19:23:48.341Z,20.73
2022-09-06T19:26:17.982Z,15.20
2022-09-06T19:28:53.415Z,12.52
2022-09-06T19:31:20.535Z,10.32
2022-09-06T19:33:48.889Z,10.00
2022-09-06T19:36:16.998Z,7.43
2022-09-06T19:39:03.498Z,8.60
2022-09-06T19:41:32.903Z,4.90
2022-09-06T19:44:00.278Z,8.48
2022-09-06T19:46:27.684Z,7.85
2022-09-06T19:48:58.789Z,8.48
2022-09-06T19:51:25.826Z,13.18
2022-09-06T19:53:57.473Z,19.00
2022-09-06T19:56:27.037Z,7.72
2022-09-06T19:58:55.756Z,5.43
2022-09-06T20:01:25.387Z,5.75
2022-09-06T20:03:52.785Z,9.02
2022-09-06T20:06:19.918Z,6.28
2022-09-06T20:08:50.929Z,5.38
2022-09-06T20:11:18.498Z,4.43
2022-09-06T20:13:45.683Z,3.90
2022-09-06T20:16:13.197Z,7.32
2022-09-06T20:18:40.947Z,4.57
2022-09-06T20:21:08.731Z,4.43
2022-09-06T20:23:36.693Z,6.32
2022-09-06T20:26:08.825Z,5.70
2022-09-06T20:28:37.035Z,7.93
2022-09-06T20:31:09.999Z,13.05
2022-09-06T20:33:37.412Z,4.22
2022-09-06T20:36:07.022Z,3.70
2022-09-06T20:38:36.354Z,5.30
2022-09-06T20:41:05.177Z,9.32
2022-09-06T20:43:39.363Z,4.38
2022-09-06T20:46:17.743Z,5.90
2022-09-06T20:48:45.795Z,5.47
2022-09-06T20:51:15.604Z,4.22
2022-09-06T20:53:43.324Z,5.22
2022-09-06T20:56:12.066Z,4.47
2022-09-06T20:58:39.737Z,4.35
2022-09-06T21:01:17.018Z,5.57
2022-09-06T21:03:44.412Z,6.18
2022-09-06T21:06:12.550Z,14.40
2022-09-06T21:08:42.785Z,10.48
2022-09-06T21:11:10.927Z,7.25
2022-09-06T21:13:38.507Z,4.28
2022-09-06T21:16:06.476Z,4.10
2022-09-06T21:18:34.487Z,3.58
2022-09-06T21:21:03.038Z,3.15
2022-09-06T21:23:31.390Z,5.95
2022-09-06T21:26:00.099Z,3.03
2022-09-06T21:28:34.470Z,9.35
2022-09-06T21:31:12.109Z,6.22
2022-09-06T21:33:40.659Z,3.75
2022-09-06T21:36:09.984Z,5.15
2022-09-06T21:38:38.410Z,1.95
2022-09-06T21:41:06.659Z,6.25
2022-09-06T21:43:34.355Z,2.67
2022-09-06T21:46:20.514Z,3.67
2022-09-06T21:48:49.159Z,2.95
2022-09-06T21:51:21.300Z,4.63
2022-09-06T21:53:49.684Z,10.80
2022-09-06T21:56:19.621Z,3.17
2022-09-06T21:58:50.187Z,2.13
2022-09-06T22:01:20.510Z,3.10
2022-09-06T22:03:47.953Z,1.60
2022-09-06T22:06:19.811Z,5.20
2022-09-06T22:08:47.550Z,3.83
2022-09-06T22:11:16.684Z,5.10
2022-09-06T22:13:44.566Z,1.88
2022-09-06T22:16:12.358Z,1.98
2022-09-06T22:18:39.826Z,1.67
2022-09-06T22:21:10.924Z,1.83
2022-09-06T22:23:38.914Z,2.50
2022-09-06T22:26:08.009Z,4.38
2022-09-06T22:28:35.306Z,4.72
2022-09-06T22:31:02.806Z,2.50
2022-09-06T22:33:30.143Z,2.20
2022-09-06T22:36:00.472Z,1.83
2022-09-06T22:38:31.399Z,3.92
2022-09-06T22:40:58.742Z,2.55
2022-09-06T22:43:26.420Z,2.00
2022-09-06T22:45:53.730Z,1.30
2022-09-06T22:48:21.033Z,1.42
2022-09-06T22:50:48.316Z,1.42
2022-09-06T22:53:15.844Z,2.90
2022-09-06T22:55:46.813Z,3.00
2022-09-06T22:58:14.026Z,1.60
2022-09-06T23:00:41.354Z,2.08
2022-09-06T23:03:08.616Z,5.68
2022-09-06T23:05:36.130Z,2.67
2022-09-06T23:08:03.979Z,1.38
2022-09-06T23:10:31.545Z,2.53
2022-09-06T23:12:59.088Z,1.55
2022-09-06T23:15:26.331Z,3.45
2022-09-06T23:17:53.710Z,2.00
2022-09-06T23:20:21.463Z,5.90
2022-09-06T23:22:48.697Z,2.50
2022-09-06T23:25:16.295Z,4.97
2022-09-06T23:27:43.114Z,6.43
2022-09-06T23:30:11.181Z,125.50
2022-09-06T23:32:38.458Z,108.32
2022-09-06T23:35:06.309Z,71.93
2022-09-06T23:37:35.521Z,19.23
2022-09-06T23:40:08.334Z,8.10
2022-09-06T23:42:36.308Z,4.65
2022-09-06T23:45:03.663Z,2.47
2022-09-06T23:47:30.883Z,2.85
2022-09-06T23:49:58.116Z,3.10
2022-09-06T23:52:25.547Z,1.75
2022-09-06T23:54:52.431Z,2.70
2022-09-06T23:57:19.712Z,2.15
2022-09-06T23:59:46.913Z,1.90
